Aérodrome :
LOGIN :

S'inscrire | Disclaimer

   EN    FR    IT 

 










Légende :    VFR   VFR Marginal   IFR   IFR Intensif   IFR Très Intensif
Visi : 
Plafond : 
>= 8 km
>= 3000ft
5 à 8 km
1000 à 3000 ft
1500m à 5 km
500 à 1000 ft
800 à 1500m
200 à 500 ft
< 800m
< 200 ft
Symboles :   Orages  Brouillard  Fortes neiges  Fortes précipitations  Vent > 20 kt
SIGMETs :   Divers  Orages  Givrage  Turbulence  Onde Orograph.  Cendres Volcan.






- Altitude de l'aérodrome : 844 ft
- Code IATA : OSR


LKMT - Ostrava-Mosnov

DERNIER METAR :
  • 200430Z 22008KT 9999 -RA SCT026 OVC034 02/01 Q1021 NOSIG

METARs EXPIRÉS :
  • 200400Z 23009KT 9999 -RA SCT028 OVC037 02/01 Q1021 NOSIG
  • 200330Z 24008KT 9999 OVC036 02/01 Q1021 NOSIG
  • 200300Z 23007KT 9999 -RA FEW021 OVC046 02/01 Q1021 NOSIG
  • 200230Z 24010KT 9999 -SHRA BKN037 OVC044 02/01 Q1020 NOSIG
  • 200200Z 23010KT 9999 BKN039 OVC048 03/00 Q1020 TEMPO 4000 SHRASN

TAF TAF LKMT
Valide du 20 à 00h jusqu'au 21 à 06h UTC


192300Z 2000/2106 21008KT 9999 BKN025
TEMPO 2000/2008 6000 -SHRASN BKN013
BECMG 2009/2011 23012KT SCT035
BECMG 2100/2103 19016KT BKN030
TEMPO 2103/2106 22018G30KT



MET'MAP, la Météo Aéronautique d'un coup d'oeil ! - Copyright ORBIFLY Décembre 2007 - Disclaimer

ORBIFLY MET'MAP TEAM :

Programmation & Développement : Alexandra Zaïnal
Sur une idée originale de : Baudouin d'Aumeries
Assistance à la programmation : Marc-Olivier Méhu
Soutien technique & logistique : Manuel Goepfert

Contact : metmap@orbifly.com




SOURCES & CREDITS :

   NOAA